Latest Weather Observations for Braidwood

IDN60901

Issued at 2:11 pm EST Thursday 28 May 2015 (issued every 10 minutes, with the page automatically refreshed every 10 minutes)

About weather observations | Map of Canberra area stations | Latest observations for Canberra area | Other Formats
Station Details ID: 069132 Name: BRAIDWOOD RACECOURSE AWS Lat: -35.43 Lon: 149.78 Height: 665.2 m
Data from the previous 72 hours. | See also: Recent months at Braidwood
Date/Time
EST
Tmp

°C
App
Tmp
°C
Dew
Point
°C
Rel
Hum
%
Delta-T

°C
Wind Press
QNH
hPa
Press
MSL
hPa
Rain
since
9 am
mm
Dir
 
Spd
km/h
Gust
km/h
Spd
kts
Gust
kts
28/02:00pm 14.0 10.3 9.6 75 2.3 NW 19 30 10 16 1020.6 1020.7 0.0
28/01:30pm 14.7 10.7 8.9 68 3.1 NW 20 32 11 17 1020.8 1020.9 0.0
28/01:00pm 14.2 11.0 8.6 69 2.9 NW 15 26 8 14 1021.1 1021.2 0.0
28/12:30pm 13.8 10.1 8.0 68 3.0 NW 17 24 9 13 1021.2 1021.3 0.0
28/12:00pm 13.9 9.2 7.9 67 3.1 WNW 22 32 12 17 1021.6 1021.7 0.0
28/11:30am 14.3 11.5 8.5 68 3.0 NW 13 24 7 13 1022.3 1022.4 0.0
28/11:00am 14.2 10.7 7.3 63 3.5 NW 15 24 8 13 1022.6 1022.7 0.0
28/10:30am 13.9 12.6 10.1 78 2.0 NNE 7 13 4 7 1023.0 1023.2 0.0
28/10:00am 12.0 10.8 9.4 84 1.4 N 6 11 3 6 1023.3 1023.5 0.0
28/09:30am 9.7 8.8 9.2 97 0.3 N 4 7 2 4 1023.4 1023.6 0.0
28/09:00am 9.0 8.7 8.6 97 0.2 CALM 0 0 0 0 1023.3 1023.5 0.0
28/08:30am 6.3 5.4 5.9 97 0.2 CALM 0 0 0 0 1023.3 1023.5 0.0
28/08:00am 4.9 3.7 4.5 97 0.2 CALM 0 0 0 0 1023.4 1023.6 0.0
28/07:30am 3.6 2.1 3.0 96 0.3 CALM 0 0 0 0 1023.3 1023.5 0.0
28/07:00am 3.2 1.3 2.8 97 0.2 NNW 2 6 1 3 1023.3 1023.5 0.0
28/06:30am 3.6 1.7 3.0 96 0.3 NNW 2 6 1 3 1022.8 1022.9 0.0
28/06:00am 3.3 1.7 2.7 96 0.2 CALM 0 6 0 3 1022.6 1022.7 0.0
28/05:30am 2.1 0.3 1.5 96 0.2 CALM 0 0 0 0 1022.4 1022.5 0.0
28/05:00am 1.9 0.1 1.2 95 0.3 CALM 0 0 0 0 1022.3 1022.4 0.0
28/04:30am 3.3 1.7 2.7 96 0.3 CALM 0 0 0 0 1022.3 1022.4 0.0
28/04:00am 3.4 1.5 2.7 95 0.3 N 2 4 1 2 1022.3 1022.4 0.0
28/03:30am 4.1 2.7 3.4 95 0.3 CALM 0 0 0 0 1022.4 1022.5 0.0
28/03:00am 4.0 2.1 3.1 94 0.4 NNE 2 6 1 3 1022.5 1022.6 0.0
28/02:30am 5.8 3.6 5.2 96 0.3 WNW 6 9 3 5 1022.7 1022.8 0.0
28/02:00am 5.2 2.9 4.6 96 0.3 NNW 6 7 3 4 1022.8 1022.9 0.0
28/01:30am 4.9 2.5 4.2 95 0.3 NNW 6 9 3 5 1023.0 1023.2 0.0
28/01:00am 4.6 2.5 3.7 94 0.4 NNW 4 6 2 3 1023.0 1023.2 0.0
28/12:30am 5.0 2.5 4.0 93 0.4 NNW 6 9 3 5 1023.0 1023.2 0.0
28/12:00am 5.6 3.3 4.7 94 0.4 NNW 6 9 3 5 1023.0 1023.2 0.0
 
Date/Time
EST
Tmp

°C
App
Tmp
°C
Dew
Point
°C
Rel
Hum
%
Delta-T

°C
Wind Press
QNH
hPa
Press
MSL
hPa
Rain
since
9 am
mm
Dir
 
Spd
km/h
Gust
km/h
Spd
kts
Gust
kts
27/11:30pm 4.6 3.1 2.8 88 0.8 CALM 0 4 0 2 1023.1 1023.3 0.0
27/11:00pm 6.3 4.0 4.6 89 0.8 NW 6 9 3 5 1023.3 1023.5 0.0
27/10:30pm 7.4 5.2 5.5 88 0.9 NNW 6 9 3 5 1023.2 1023.4 0.0
27/10:00pm 7.7 6.7 5.5 86 1.0 CALM 0 2 0 1 1023.3 1023.5 0.0
27/09:30pm 7.9 5.7 5.5 85 1.1 ENE 6 7 3 4 1023.4 1023.6 0.0
27/09:00pm 8.8 8.0 6.3 84 1.2 CALM 0 0 0 0 1023.5 1023.7 0.0
27/08:30pm 9.0 8.2 6.3 83 1.3 CALM 0 0 0 0 1023.3 1023.5 0.0
27/08:00pm 9.6 7.7 6.7 82 1.4 NW 6 9 3 5 1023.2 1023.4 0.0
27/07:30pm 9.8 7.4 6.9 82 1.4 NW 9 13 5 7 1023.1 1023.3 0.0
27/07:00pm 9.9 8.0 6.8 81 1.5 NW 6 7 3 4 1023.2 1023.4 0.0
27/06:30pm 10.0 8.4 6.5 79 1.7 NNW 4 7 2 4 1022.8 1022.9 0.0
27/06:00pm 10.6 7.7 6.7 77 1.9 NW 11 17 6 9 1022.4 1022.5 0.0
27/05:30pm 10.1 7.9 6.3 77 1.8 NNW 7 11 4 6 1022.4 1022.5 0.0
27/05:00pm 11.5 9.8 6.0 69 2.7 NW 4 7 2 4 1022.4 1022.5 0.0
27/04:30pm 13.5 11.3 6.4 62 3.5 NW 7 13 4 7 1022.2 1022.3 0.0
27/04:00pm 14.3 11.3 6.2 58 4.0 WNW 11 19 6 10 1022.2 1022.3 0.0
27/03:30pm 14.9 10.8 6.0 55 4.4 WNW 17 24 9 13 1021.9 1022.1 0.0
27/03:00pm 16.1 12.4 6.3 52 4.9 WNW 15 22 8 12 1021.9 1022.1 0.0
27/02:30pm 16.0 12.4 5.0 48 5.4 WNW 13 20 7 11 1021.8 1022.0 0.0
27/02:00pm 15.8 12.2 5.1 49 5.2 NW 13 20 7 11 1021.7 1021.9 0.0
27/01:30pm 14.0 9.8 4.0 51 4.7 WNW 15 20 8 11 1022.0 1022.2 0.0
27/01:00pm 14.0 11.0 4.0 51 4.7 NW 9 17 5 9 1022.4 1022.5 0.0
27/12:30pm 16.0 12.7 4.4 46 5.6 NW 11 19 6 10 1022.5 1022.6 0.0
27/12:00pm 16.2 13.0 2.9 41 6.2 NW 9 15 5 8 1022.9 1023.0 0.0
27/11:30am 14.5 11.8 0.4 38 6.2 W 4 13 2 7 1023.3 1023.5 0.0
27/11:00am 14.6 12.7 3.1 46 5.3 NNW 2 7 1 4 1024.0 1024.1 0.0
27/10:30am 12.8 10.5 2.6 50 4.6 NNW 4 7 2 4 1024.3 1024.4 0.0
27/10:00am 12.1 10.1 4.3 59 3.6 N 4 9 2 5 1024.4 1024.6 0.0
27/09:30am 9.8 7.9 5.0 72 2.2 N 4 7 2 4 1024.6 1024.8 0.0
27/09:00am 8.6 7.5 5.0 78 1.7 CALM 0 0 0 0 1024.6 1024.8 0.0
27/08:30am 6.6 5.5 5.1 90 0.7 CALM 0 0 0 0 1024.5 1024.7 0.0
27/08:00am 4.7 3.4 4.1 96 0.3 CALM 0 0 0 0 1024.5 1024.7 0.0
27/07:30am 3.2 1.6 2.5 95 0.3 CALM 0 0 0 0 1024.2 1024.3 0.0
27/07:00am 2.6 0.9 1.9 95 0.3 CALM 0 0 0 0 1024.0 1024.1 0.0
27/06:30am 3.2 1.6 2.5 95 0.3 CALM 0 0 0 0 1023.9 1024.0 0.0
27/06:00am 2.2 0.4 1.0 92 0.5 CALM 0 0 0 0 1023.5 1023.7 0.0
27/05:30am 3.6 2.0 2.6 93 0.4 CALM 0 0 0 0 1023.2 1023.4 0.0
27/05:00am 3.9 2.4 3.2 95 0.3 CALM 0 0 0 0 1023.2 1023.4 0.0
27/04:30am 3.8 2.3 3.1 95 0.3 CALM 0 0 0 0 1023.6 1023.8 0.0
27/04:00am 3.6 2.1 2.9 95 0.3 CALM 0 0 0 0 1024.0 1024.1 0.0
27/03:30am 3.8 2.3 3.2 96 0.3 CALM 0 0 0 0 1024.4 1024.6 0.0
27/03:00am 4.7 3.4 4.1 96 0.3 CALM 0 4 0 2 1024.6 1024.8 0.0
27/02:30am 4.7 3.0 4.1 96 0.3 NNE 2 4 1 2 1024.8 1025.0 0.0
27/02:00am 4.6 3.3 4.0 96 0.3 CALM 0 0 0 0 1025.1 1025.3 0.0
27/01:30am 5.0 3.8 4.4 96 0.3 CALM 0 0 0 0 1025.1 1025.3 0.0
27/01:00am 4.5 3.1 3.8 95 0.3 CALM 0 0 0 0 1025.0 1025.2 0.0
27/12:30am 3.9 2.4 3.0 94 0.4 CALM 0 0 0 0 1025.4 1025.5 0.0
27/12:00am 4.1 2.6 3.2 94 0.4 CALM 0 0 0 0 1025.8 1026.0 0.0
 
Date/Time
EST
Tmp

°C
App
Tmp
°C
Dew
Point
°C
Rel
Hum
%
Delta-T

°C
Wind Press
QNH
hPa
Press
MSL
hPa
Rain
since
9 am
mm
Dir
 
Spd
km/h
Gust
km/h
Spd
kts
Gust
kts
26/11:30pm 5.8 4.7 5.1 95 0.3 CALM 0 0 0 0 1026.0 1026.2 0.0
26/11:00pm 5.8 4.3 5.1 95 0.3 SSW 2 7 1 4 1026.2 1026.4 0.0
26/10:30pm 5.5 4.3 4.8 95 0.3 CALM 0 0 0 0 1026.1 1026.3 0.0
26/10:00pm 5.8 4.7 4.9 94 0.4 CALM 0 6 0 3 1026.5 1026.7 0.0
26/09:30pm 5.6 4.4 4.6 93 0.4 CALM 0 0 0 0 1026.7 1026.9 0.0
26/09:00pm 5.9 4.8 5.0 94 0.4 CALM 0 0 0 0 1026.7 1026.9 0.0
26/08:30pm 6.1 5.0 5.1 93 0.5 CALM 0 0 0 0 1026.7 1026.9 0.0
26/08:00pm 6.1 5.0 4.9 92 0.5 CALM 0 0 0 0 1026.7 1026.9 0.0
26/07:30pm 6.5 5.0 5.1 91 0.6 SE 2 4 1 2 1026.8 1027.0 0.0
26/07:00pm 7.1 5.4 5.9 92 0.6 ESE 4 4 2 2 1027.0 1027.2 0.0
26/06:30pm 7.4 5.7 5.7 89 0.8 SE 4 6 2 3 1026.6 1026.8 0.0
26/06:00pm 7.7 5.5 5.5 86 1.0 S 6 6 3 3 1026.7 1026.9 0.0
26/05:30pm 8.4 6.7 5.7 83 1.3 SSE 4 6 2 3 1026.3 1026.5 0.0
26/05:00pm 8.8 6.1 2.8 66 2.6 ESE 6 9 3 5 1025.9 1026.1 0.0
26/04:30pm 10.9 8.7 3.5 60 3.4 NE 4 6 2 3 1025.8 1026.0 0.0
26/04:00pm 12.2 9.5 2.9 53 4.2 NE 6 9 3 5 1025.9 1026.1 0.0
26/03:30pm 13.5 10.7 1.8 45 5.3 NNE 6 11 3 6 1025.9 1026.1 0.0
26/03:00pm 14.2 11.5 2.5 45 5.4 NNE 6 17 3 9 1026.1 1026.3 0.0
26/02:30pm 13.8 10.9 1.5 43 5.5 NE 6 9 3 5 1026.4 1026.6 0.0
26/02:00pm 14.0 11.6 2.0 44 5.4 N 4 9 2 5 1026.7 1026.9 0.0
26/01:30pm 13.7 11.0 3.5 50 4.8 NE 7 13 4 7 1027.1 1027.3 0.0
26/01:00pm 13.1 10.4 2.9 50 4.7 N 6 11 3 6 1027.4 1027.6 0.0
26/12:30pm 12.8 10.2 4.0 55 4.1 NE 7 13 4 7 1027.8 1028.0 0.0
26/12:00pm 12.0 9.3 2.7 53 4.2 N 6 11 3 6 1028.4 1028.7 0.0
26/11:30am 11.4 9.4 4.4 62 3.3 NNE 4 9 2 5 1029.0 1029.2 0.0
26/11:00am 9.5 7.6 3.0 64 2.9 WNW 2 6 1 3 1029.5 1029.8 0.0
26/10:30am 8.8 7.3 3.0 67 2.6 CALM 0 0 0 0 1029.8 1030.1 0.0
26/10:00am 7.4 6.1 4.0 79 1.5 CALM 0 0 0 0 1029.9 1030.2 0.0
26/09:30am 4.6 3.1 2.9 89 0.7 CALM 0 0 0 0 1030.1 1030.4 0.0
26/09:00am 1.3 -0.6 0.3 93 0.4 CALM 0 0 0 0 1030.3 1030.5 0.2
26/08:30am 0.1 -2.0 -0.6 95 0.3 CALM 0 0 0 0 1030.3 1030.5 0.2
26/08:00am -1.8 -4.1 -2.4 96 0.1 CALM 0 0 0 0 1030.3 1030.5 0.0
26/07:30am -2.4 -4.8 -2.8 97 0.0 CALM 0 0 0 0 1030.1 1030.4 0.0
26/07:00am -3.1 -5.5 -3.5 97 0.0 CALM 0 0 0 0 1029.7 1030.0 0.0
26/06:30am -2.8 -5.2 -3.2 97 0.0 CALM 0 0 0 0 1029.3 1029.5 0.0
26/06:00am -3.1 -5.5 -3.5 97 0.0 CALM 0 0 0 0 1028.9 1029.1 0.0
26/05:30am -3.4 -5.9 -3.8 97 0.0 CALM 0 0 0 0 1028.7 1028.9 0.0
26/05:00am -3.3 -5.8 -3.8 96 0.0 CALM 0 0 0 0 1028.9 1029.1 0.0
26/04:30am -2.6 -5.0 -3.0 97 0.0 CALM 0 0 0 0 1029.1 1029.3 0.0
26/04:00am -2.9 -5.3 -3.4 96 0.0 CALM 0 0 0 0 1029.2 1029.4 0.0
26/03:30am -2.5 -4.9 -3.0 96 0.1 CALM 0 0 0 0 1029.3 1029.5 0.0
26/03:00am -1.1 -3.3 -1.5 97 0.1 CALM 0 0 0 0 1029.4 1029.6 0.0
26/02:30am -0.9 -3.1 -1.5 96 0.2 CALM 0 0 0 0 1029.6 1029.9 0.0
26/02:00am -0.9 -3.1 -1.7 94 0.2 CALM 0 0 0 0 1029.6 1029.9 0.0
26/01:30am 0.3 -1.7 -0.4 95 0.3 CALM 0 0 0 0 1029.6 1029.9 0.0
26/01:00am 0.6 -1.4 -0.4 93 0.4 CALM 0 0 0 0 1029.7 1030.0 0.0
26/12:30am 1.7 -0.2 0.8 94 0.4 CALM 0 0 0 0 1029.8 1030.1 0.0
26/12:00am 1.9 0.0 0.7 92 0.5 CALM 0 0 0 0 1029.9 1030.2 0.0
 
Date/Time
EST
Tmp

°C
App
Tmp
°C
Dew
Point
°C
Rel
Hum
%
Delta-T

°C
Wind Press
QNH
hPa
Press
MSL
hPa
Rain
since
9 am
mm
Dir
 
Spd
km/h
Gust
km/h
Spd
kts
Gust
kts
25/11:30pm 2.3 0.5 1.1 92 0.5 CALM 0 0 0 0 1030.0 1030.3 0.0
25/11:00pm 2.9 1.2 1.7 92 0.5 CALM 0 0 0 0 1029.8 1030.1 0.0
25/10:30pm 2.3 0.5 1.0 91 0.5 CALM 0 0 0 0 1030.3 1030.5 0.0
25/10:00pm 2.2 0.3 0.3 87 0.7 CALM 0 0 0 0 1030.3 1030.5 0.0
25/09:30pm 2.6 0.7 0.3 85 0.9 CALM 0 0 0 0 1030.4 1030.6 0.0
25/09:00pm 3.2 1.4 1.1 86 0.8 CALM 0 0 0 0 1030.3 1030.5 0.0
25/08:30pm 2.9 1.0 0.8 86 0.8 CALM 0 2 0 1 1030.0 1030.3 0.0
25/08:00pm 2.7 -0.1 -0.1 82 1.1 S 4 6 2 3 1029.9 1030.2 0.0
25/07:30pm 2.9 1.0 0.3 83 1.0 CALM 0 0 0 0 1029.8 1030.1 0.0
25/07:00pm 2.9 0.8 -0.7 77 1.4 CALM 0 0 0 0 1029.6 1029.9 0.0
25/06:30pm 4.0 1.9 -0.6 72 1.8 CALM 0 0 0 0 1029.3 1029.5 0.0
25/06:00pm 5.5 3.5 -0.1 67 2.2 CALM 0 2 0 1 1028.8 1029.0 0.0
25/05:30pm 7.7 5.0 0.0 58 3.2 NNW 4 7 2 4 1028.5 1028.8 0.0
25/05:00pm 8.7 5.5 -0.3 53 3.7 NW 6 7 3 4 1028.5 1028.8 0.0
25/04:30pm 11.4 6.9 -0.4 44 5.0 WNW 13 20 7 11 1028.5 1028.8 0.0
25/04:00pm 13.3 8.4 -0.7 38 5.9 WNW 15 19 8 10 1028.5 1028.8 0.0
25/03:30pm 14.2 10.8 -0.3 37 6.3 NW 7 9 4 5 1028.3 1028.6 0.0
25/03:00pm 14.4 10.4 -2.5 31 6.9 W 9 13 5 7 1028.4 1028.7 0.0
25/02:30pm 14.7 10.6 -3.1 29 7.3 W 9 13 5 7 1028.4 1028.7 0.0

Latest Capital City Observations: Canberra | Sydney | Melbourne | Brisbane | Adelaide | Perth | Hobart | Darwin

Other Formats:

Comma delimited format used in spreadsheet applications
http://www.bom.gov.au/fwo/IDN60903/IDN60903.94927.axf

JavaScript Object Notation format (JSON) in row-major order
http://www.bom.gov.au/fwo/IDN60903/IDN60903.94927.json